Time;durP1;ratioP1;P1;durP2;ratioP2;P2;SDS_P1;SDS_P2;PMS_P1;PMS_P2;Temp;Humidity;BMP_temperature;BMP_pressure;BME280_temperature;BME280_humidity;BME280_pressure;Samples;Min_cycle;Max_cycle;Signal;HPM_P1;HPM_P2
2023/12/19 00:01:50;;;;;;;108.40;60.00;;;7.80;99.90;;;;;;4978504;28;20047;-72
2023/12/19 00:04:15;;;;;;;115.15;59.33;;;7.80;99.90;;;;;;5011585;28;20181;-72
2023/12/19 00:06:41;;;;;;;129.52;59.22;;;7.80;99.90;;;;;;4984264;28;20088;-72
2023/12/19 00:09:07;;;;;;;110.30;57.00;;;7.80;99.90;;;;;;5014979;28;20096;-72
2023/12/19 00:11:34;;;;;;;100.38;54.88;;;7.80;99.90;;;;;;4983233;28;20137;-73
2023/12/19 00:14:00;;;;;;;100.63;53.58;;;7.80;99.90;;;;;;5013829;28;20591;-72
2023/12/19 00:16:26;;;;;;;82.28;48.75;;;7.80;99.90;;;;;;4954188;28;20054;-73
2023/12/19 00:18:52;;;;;;;102.25;52.25;;;7.80;99.90;;;;;;4992617;28;20054;-72
2023/12/19 00:21:18;;;;;;;67.38;43.75;;;7.80;99.90;;;;;;4982891;28;20053;-72
2023/12/19 00:23:44;;;;;;;81.28;44.78;;;7.80;99.90;;;;;;5014913;28;20046;-72
2023/12/19 00:26:12;;;;;;;73.35;42.08;;;7.90;99.90;;;;;;5015358;28;20062;-72
2023/12/19 00:28:39;;;;;;;66.13;42.15;;;7.90;99.90;;;;;;4970761;28;20395;-72
2023/12/19 00:31:05;;;;;;;84.47;44.17;;;7.90;99.90;;;;;;4980612;28;20070;-72
2023/12/19 00:33:32;;;;;;;84.80;44.92;;;7.90;99.90;;;;;;4965080;28;20129;-72
2023/12/19 00:35:58;;;;;;;66.00;41.45;;;7.90;99.90;;;;;;4982646;28;20063;-73
2023/12/19 00:38:23;;;;;;;74.95;42.83;;;7.90;99.90;;;;;;5014085;28;20447;-72
2023/12/19 00:40:49;;;;;;;83.03;42.97;;;7.90;99.90;;;;;;4994569;28;20103;-73
2023/12/19 00:43:15;;;;;;;72.45;42.78;;;7.90;99.90;;;;;;4982858;28;20054;-72
2023/12/19 00:45:40;;;;;;;73.07;41.83;;;7.90;99.90;;;;;;4995128;28;20046;-73
2023/12/19 00:48:06;;;;;;;87.95;45.20;;;7.90;99.90;;;;;;4983000;28;20696;-72
2023/12/19 00:50:32;;;;;;;81.53;44.03;;;7.90;99.90;;;;;;5013115;28;20046;-72
2023/12/19 00:52:58;;;;;;;78.88;44.95;;;7.90;99.90;;;;;;5014715;28;20498;-72
2023/12/19 00:55:24;;;;;;;75.80;42.70;;;7.90;99.90;;;;;;4971887;28;20047;-72
2023/12/19 00:57:50;;;;;;;69.32;42.67;;;7.90;99.90;;;;;;5006874;28;20039;-71
2023/12/19 01:00:16;;;;;;;84.95;45.53;;;7.90;99.90;;;;;;4974567;28;20054;-72
2023/12/19 01:02:42;;;;;;;69.82;41.92;;;7.90;99.90;;;;;;4992962;28;20042;-72
2023/12/19 01:05:08;;;;;;;72.30;42.38;;;7.90;99.90;;;;;;5004920;28;20045;-73
2023/12/19 01:07:33;;;;;;;86.28;44.70;;;7.90;99.90;;;;;;4968069;28;20379;-72
2023/12/19 01:09:59;;;;;;;68.68;40.22;;;7.90;99.90;;;;;;5008799;28;20125;-72
2023/12/19 01:12:25;;;;;;;79.35;42.95;;;7.90;99.90;;;;;;4981249;28;20625;-73
2023/12/19 01:14:51;;;;;;;64.90;40.35;;;7.90;99.90;;;;;;4958148;28;20545;-72
2023/12/19 01:17:16;;;;;;;75.45;42.58;;;7.90;99.90;;;;;;4974712;28;20187;-72
2023/12/19 01:19:42;;;;;;;72.45;43.17;;;7.90;99.90;;;;;;5010470;28;20098;-72
2023/12/19 01:22:08;;;;;;;70.18;41.63;;;7.90;99.90;;;;;;4976334;28;20045;-72
2023/12/19 01:24:34;;;;;;;69.93;41.25;;;7.90;99.90;;;;;;4975426;28;20078;-72
2023/12/19 01:27:00;;;;;;;79.82;43.25;;;7.90;99.90;;;;;;5011718;28;20086;-72
2023/12/19 01:29:26;;;;;;;62.35;37.67;;;7.80;99.90;;;;;;4964058;28;20057;-72
2023/12/19 01:31:53;;;;;;;78.10;43.28;;;7.90;99.90;;;;;;4977862;28;20042;-72
2023/12/19 01:34:19;;;;;;;73.50;41.55;;;7.80;99.90;;;;;;5011758;28;20441;-72
2023/12/19 01:36:45;;;;;;;63.70;37.35;;;7.90;99.90;;;;;;4975662;28;20039;-72
2023/12/19 01:39:12;;;;;;;65.78;36.95;;;7.90;99.90;;;;;;4987381;28;20499;-72
2023/12/19 01:41:37;;;;;;;57.47;34.95;;;7.90;99.90;;;;;;4976778;28;20050;-72
2023/12/19 01:44:03;;;;;;;56.97;35.55;;;7.90;99.90;;;;;;4958417;28;20068;-73
2023/12/19 01:46:29;;;;;;;46.35;32.47;;;7.90;99.90;;;;;;5006338;28;20073;-72
2023/12/19 01:49:00;;;;;;;51.38;32.03;;;7.90;99.90;;;;;;4960985;28;20498;-72
2023/12/19 01:51:26;;;;;;;50.70;33.58;;;7.90;99.90;;;;;;4982859;28;20597;-72
2023/12/19 01:53:52;;;;;;;57.42;33.63;;;7.90;99.90;;;;;;5000436;28;20049;-72
2023/12/19 01:56:20;;;;;;;47.60;31.92;;;7.90;99.90;;;;;;5009058;28;20046;-72
2023/12/19 01:58:47;;;;;;;49.92;32.03;;;7.90;99.90;;;;;;4980813;28;20125;-72
2023/12/19 02:01:14;;;;;;;46.67;32.15;;;7.90;99.90;;;;;;5015186;28;20042;-72
2023/12/19 02:03:41;;;;;;;46.60;32.40;;;7.90;99.90;;;;;;4981368;28;20070;-72
2023/12/19 02:06:08;;;;;;;43.70;30.38;;;7.90;99.90;;;;;;5011539;28;20046;-73
2023/12/19 02:08:34;;;;;;;58.40;34.28;;;7.90;99.90;;;;;;4967904;28;20130;-73
2023/12/19 02:11:00;;;;;;;51.58;33.03;;;7.90;99.90;;;;;;5008350;28;20117;-73
2023/12/19 02:13:26;;;;;;;53.65;33.78;;;7.90;99.90;;;;;;4995440;28;20050;-73
2023/12/19 02:15:52;;;;;;;54.65;34.25;;;7.90;99.90;;;;;;4968164;28;22912;-73
2023/12/19 02:18:19;;;;;;;57.47;35.00;;;7.90;99.90;;;;;;5000788;28;20518;-73
2023/12/19 02:20:45;;;;;;;48.15;32.75;;;7.90;99.90;;;;;;4976464;28;20054;-73
2023/12/19 02:23:15;;;;;;;55.95;34.03;;;7.90;99.90;;;;;;5016525;28;20522;-72
2023/12/19 02:25:41;;;;;;;51.90;31.80;;;7.90;99.90;;;;;;4961423;28;20110;-72
2023/12/19 02:28:07;;;;;;;44.97;29.35;;;7.90;99.90;;;;;;5015045;28;21076;-72
2023/12/19 02:30:36;;;;;;;44.20;29.73;;;7.90;99.90;;;;;;4980045;28;20069;-72
2023/12/19 02:33:03;;;;;;;42.40;29.45;;;7.90;99.90;;;;;;5008661;28;20081;-73
2023/12/19 02:35:29;;;;;;;47.35;29.65;;;7.90;99.90;;;;;;4978626;28;20136;-72
2023/12/19 02:37:55;;;;;;;43.70;29.77;;;7.90;99.90;;;;;;5011420;28;20060;-73
2023/12/19 02:40:21;;;;;;;40.67;29.38;;;7.80;99.90;;;;;;5010463;28;20445;-73
2023/12/19 02:42:47;;;;;;;59.05;32.97;;;7.80;99.90;;;;;;4984635;28;20050;-72
2023/12/19 02:45:13;;;;;;;52.47;32.80;;;7.80;99.90;;;;;;4983035;28;20054;-73
2023/12/19 02:47:39;;;;;;;51.13;32.20;;;7.80;99.90;;;;;;4984970;28;20421;-73
2023/12/19 02:50:06;;;;;;;59.28;32.20;;;7.80;99.90;;;;;;4974765;28;20043;-72
2023/12/19 02:52:31;;;;;;;39.47;28.30;;;7.80;99.90;;;;;;4984198;28;20107;-73
2023/12/19 02:54:57;;;;;;;46.05;29.45;;;7.80;99.90;;;;;;4965867;28;20050;-73
2023/12/19 02:57:23;;;;;;;39.75;27.25;;;7.80;99.90;;;;;;4994315;28;20053;-73
2023/12/19 02:59:49;;;;;;;41.20;27.42;;;7.80;99.90;;;;;;5009644;28;20603;-73
2023/12/19 03:02:14;;;;;;;38.28;27.58;;;7.80;99.90;;;;;;4967460;28;20042;-73
2023/12/19 03:04:40;;;;;;;51.55;29.30;;;7.80;99.90;;;;;;4959785;28;20059;-73
2023/12/19 03:07:08;;;;;;;34.85;25.52;;;7.80;99.90;;;;;;4982939;28;20066;-74
2023/12/19 03:09:34;;;;;;;32.15;23.80;;;7.80;99.90;;;;;;4989024;28;20128;-74
2023/12/19 03:12:05;;;;;;;39.92;24.92;;;7.70;99.90;;;;;;4999600;28;20042;-73
2023/12/19 03:14:32;;;;;;;38.65;25.13;;;7.80;99.90;;;;;;5003284;28;20046;-74
2023/12/19 03:16:58;;;;;;;37.88;24.70;;;7.70;99.90;;;;;;4965682;28;20092;-74
2023/12/19 03:19:27;;;;;;;33.40;23.75;;;7.70;99.90;;;;;;4974088;28;20038;-75
2023/12/19 03:21:54;;;;;;;40.80;26.13;;;7.70;99.90;;;;;;4977754;28;20050;-73
2023/12/19 03:24:20;;;;;;;33.67;24.40;;;7.70;99.90;;;;;;4965514;28;20096;-74
2023/12/19 03:26:46;;;;;;;33.05;23.98;;;7.70;99.90;;;;;;4971079;28;20317;-73
2023/12/19 03:29:12;;;;;;;36.28;24.98;;;7.70;99.90;;;;;;4976778;28;20084;-73
2023/12/19 03:31:38;;;;;;;37.00;26.27;;;7.70;99.90;;;;;;4997309;28;20459;-72
2023/12/19 03:34:04;;;;;;;37.22;25.88;;;7.70;99.90;;;;;;4976319;28;20134;-74
2023/12/19 03:36:30;;;;;;;41.42;26.67;;;7.70;99.90;;;;;;4978667;28;20069;-74
2023/12/19 03:38:55;;;;;;;35.45;25.75;;;7.70;99.90;;;;;;4959679;28;20138;-73
2023/12/19 03:41:22;;;;;;;32.05;24.40;;;7.70;99.90;;;;;;4985228;28;20046;-74
2023/12/19 03:43:47;;;;;;;30.63;23.75;;;7.70;99.90;;;;;;4979829;28;20038;-74
2023/12/19 03:46:14;;;;;;;40.08;26.23;;;7.70;99.90;;;;;;4960937;28;20160;-74
2023/12/19 03:48:44;;;;;;;34.38;25.05;;;7.70;99.90;;;;;;4977515;28;20070;-74
2023/12/19 03:51:10;;;;;;;;;;;7.70;99.90;;;;;;4967036;28;20049;-74
2023/12/19 03:53:36;;;;;;;31.83;23.73;;;7.70;99.90;;;;;;4979343;28;20423;-74
2023/12/19 03:56:02;;;;;;;36.50;25.98;;;7.70;99.90;;;;;;4980133;28;20607;-74
2023/12/19 03:58:27;;;;;;;41.78;26.52;;;7.70;99.90;;;;;;5007627;28;20114;-74
2023/12/19 04:00:53;;;;;;;38.30;25.63;;;7.70;99.90;;;;;;5010793;28;20087;-74
2023/12/19 04:03:19;;;;;;;31.35;25.02;;;7.70;99.90;;;;;;5014754;28;20042;-73
2023/12/19 04:05:45;;;;;;;45.13;27.58;;;7.70;99.90;;;;;;4980486;28;20438;-74
2023/12/19 04:08:10;;;;;;;33.78;25.60;;;7.70;99.90;;;;;;4976541;28;20038;-74
2023/12/19 04:10:36;;;;;;;32.53;25.42;;;7.70;99.90;;;;;;4982091;28;20050;-74
2023/12/19 04:13:02;;;;;;;34.92;25.58;;;7.70;99.90;;;;;;5014436;28;20053;-74
2023/12/19 04:15:30;;;;;;;42.33;27.40;;;7.70;99.90;;;;;;4983031;28;20486;-73
2023/12/19 04:17:58;;;;;;;39.10;26.20;;;7.70;99.90;;;;;;4966390;28;20093;-73
2023/12/19 04:20:24;;;;;;;41.72;27.17;;;7.70;99.90;;;;;;4957590;28;20050;-74
2023/12/19 04:22:50;;;;;;;35.03;25.23;;;7.70;99.90;;;;;;4980934;28;20125;-73
2023/12/19 04:25:16;;;;;;;32.00;24.88;;;7.70;99.90;;;;;;5008026;28;20050;-73
2023/12/19 04:27:41;;;;;;;46.85;27.60;;;7.70;99.90;;;;;;5007977;28;20168;-73
2023/12/19 04:30:08;;;;;;;36.47;25.02;;;7.70;99.90;;;;;;4998264;28;20129;-73
2023/12/19 04:32:33;;;;;;;39.08;25.42;;;7.70;99.90;;;;;;4982708;28;20521;-73
2023/12/19 04:34:59;;;;;;;39.85;25.20;;;7.70;99.90;;;;;;4998656;28;20046;-73
2023/12/19 04:37:25;;;;;;;40.78;24.98;;;7.70;99.90;;;;;;5012461;28;20120;-73
2023/12/19 04:39:51;;;;;;;30.50;23.35;;;7.70;99.90;;;;;;5011336;28;20068;-74
2023/12/19 04:42:19;;;;;;;40.50;25.67;;;7.70;99.90;;;;;;4990320;28;20100;-74
2023/12/19 04:44:46;;;;;;;36.70;24.63;;;7.70;99.90;;;;;;4990046;28;20089;-73
2023/12/19 04:47:12;;;;;;;42.20;25.10;;;7.70;99.90;;;;;;4979253;28;20448;-73
2023/12/19 04:49:39;;;;;;;35.13;23.70;;;7.60;99.90;;;;;;4978015;28;20498;-73
2023/12/19 04:52:05;;;;;;;37.15;23.55;;;7.70;99.90;;;;;;5007667;28;20043;-74
2023/12/19 04:54:31;;;;;;;45.03;26.60;;;7.70;99.90;;;;;;4975314;28;20049;-73
2023/12/19 04:56:57;;;;;;;38.50;25.77;;;7.70;99.90;;;;;;4982144;28;20050;-73
2023/12/19 04:59:22;;;;;;;36.63;24.88;;;7.70;99.90;;;;;;4992855;28;20051;-73
2023/12/19 05:01:48;;;;;;;36.65;25.77;;;7.70;99.90;;;;;;5008658;28;20050;-74
2023/12/19 05:04:14;;;;;;;35.05;24.38;;;7.70;99.90;;;;;;5005116;28;20627;-73
2023/12/19 05:06:39;;;;;;;32.65;23.50;;;7.70;99.90;;;;;;5014951;28;20075;-74
2023/12/19 05:09:05;;;;;;;41.03;25.17;;;7.80;99.90;;;;;;4962482;28;20077;-73
2023/12/19 05:11:31;;;;;;;38.17;23.88;;;7.70;99.90;;;;;;5001671;28;20035;-74
2023/12/19 05:13:57;;;;;;;34.50;22.65;;;7.70;99.90;;;;;;5010131;28;20406;-73
2023/12/19 05:16:24;;;;;;;33.88;21.88;;;7.80;99.90;;;;;;5002256;28;20058;-74
2023/12/19 05:18:49;;;;;;;38.40;23.25;;;7.80;99.90;;;;;;4977633;28;20399;-74
2023/12/19 05:21:15;;;;;;;42.45;24.00;;;7.90;99.90;;;;;;5004499;28;20112;-74
2023/12/19 05:23:41;;;;;;;31.92;22.48;;;7.80;99.90;;;;;;5008449;28;20042;-74
2023/12/19 05:26:08;;;;;;;34.05;22.17;;;7.80;99.90;;;;;;5010288;28;20069;-73
2023/12/19 05:28:35;;;;;;;30.92;20.92;;;7.80;99.90;;;;;;4977979;28;20050;-73
2023/12/19 05:31:01;;;;;;;35.35;22.15;;;7.80;99.90;;;;;;4999271;28;20034;-73
2023/12/19 05:33:29;;;;;;;34.55;21.83;;;7.80;99.90;;;;;;4987413;28;20116;-73
2023/12/19 05:35:57;;;;;;;29.08;20.95;;;7.80;99.90;;;;;;4978095;28;20125;-74
2023/12/19 05:38:23;;;;;;;37.45;21.75;;;7.80;99.90;;;;;;4969640;28;20046;-73
2023/12/19 05:40:51;;;;;;;27.45;19.77;;;7.90;99.90;;;;;;5006316;28;20050;-73
2023/12/19 05:43:17;;;;;;;34.50;21.73;;;7.80;99.90;;;;;;5012636;28;20121;-73
2023/12/19 05:45:43;;;;;;;30.20;20.77;;;7.80;99.90;;;;;;5012964;28;20557;-74
2023/12/19 05:48:09;;;;;;;33.70;20.92;;;7.80;99.90;;;;;;4975117;28;20490;-73
2023/12/19 05:50:34;;;;;;;29.35;19.75;;;7.90;99.90;;;;;;4976903;28;20125;-73
2023/12/19 05:53:00;;;;;;;26.35;18.80;;;7.90;99.90;;;;;;4997158;28;20433;-74
2023/12/19 05:55:26;;;;;;;29.90;19.17;;;7.90;99.90;;;;;;4974607;28;20054;-74
2023/12/19 05:57:52;;;;;;;34.20;19.52;;;7.80;99.90;;;;;;4974293;28;20114;-73
2023/12/19 06:00:18;;;;;;;24.05;17.00;;;7.90;99.90;;;;;;5011685;28;20129;-73
2023/12/19 06:02:50;;;;;;;24.65;16.88;;;7.90;99.90;;;;;;4979045;28;20108;-73
2023/12/19 06:05:19;;;;;;;30.83;18.77;;;7.90;99.90;;;;;;4981664;28;20035;-73
2023/12/19 06:07:46;;;;;;;23.33;16.70;;;7.90;99.90;;;;;;4995826;28;20057;-73
2023/12/19 06:10:13;;;;;;;26.80;16.95;;;7.90;99.90;;;;;;4970777;28;20925;-72
2023/12/19 06:12:39;;;;;;;20.55;15.07;;;7.90;99.90;;;;;;4981039;28;20046;-73
2023/12/19 06:15:08;;;;;;;27.05;16.95;;;7.90;99.90;;;;;;4963526;28;20401;-73
2023/12/19 06:17:35;;;;;;;23.95;15.57;;;7.90;99.90;;;;;;5015568;28;20489;-73
2023/12/19 06:20:02;;;;;;;18.02;13.88;;;7.90;99.90;;;;;;4967676;28;20046;-73
2023/12/19 06:22:28;;;;;;;21.73;15.00;;;7.90;99.90;;;;;;4978731;28;20078;-73
2023/12/19 06:24:54;;;;;;;18.50;13.13;;;7.90;99.90;;;;;;4976509;28;20046;-73
2023/12/19 06:27:20;;;;;;;20.02;14.18;;;7.90;99.90;;;;;;5016182;28;20050;-73
2023/12/19 06:29:46;;;;;;;20.55;14.55;;;7.90;99.90;;;;;;5015061;28;20352;-73
2023/12/19 06:32:11;;;;;;;28.40;16.48;;;7.90;99.90;;;;;;4961180;28;20089;-73
2023/12/19 06:34:37;;;;;;;18.00;14.15;;;7.90;99.90;;;;;;4963656;28;20103;-73
2023/12/19 06:37:03;;;;;;;19.98;13.95;;;7.90;99.90;;;;;;4982532;28;20538;-73
2023/12/19 06:39:29;;;;;;;24.55;15.98;;;8.00;99.90;;;;;;4976078;28;20133;-73
2023/12/19 06:41:55;;;;;;;20.40;13.57;;;8.00;99.90;;;;;;5000220;28;20050;-73
2023/12/19 06:44:22;;;;;;;19.73;13.55;;;7.90;99.90;;;;;;4962583;28;20046;-73
2023/12/19 06:46:49;;;;;;;18.25;13.85;;;8.00;99.90;;;;;;4982425;28;20092;-73
2023/12/19 06:49:19;;;;;;;17.83;13.20;;;8.00;99.90;;;;;;4976355;28;20113;-73
2023/12/19 06:51:45;;;;;;;16.25;13.10;;;8.00;99.90;;;;;;4975517;28;20118;-73
2023/12/19 06:54:11;;;;;;;23.52;16.77;;;8.00;99.90;;;;;;4981933;28;20125;-73
2023/12/19 06:56:36;;;;;;;21.17;15.02;;;7.90;99.90;;;;;;5012794;28;20062;-73
2023/12/19 06:59:04;;;;;;;24.08;16.38;;;8.00;99.90;;;;;;4972591;28;20072;-73
2023/12/19 07:01:30;;;;;;;20.90;15.13;;;7.90;99.90;;;;;;4976111;28;20046;-73
2023/12/19 07:03:56;;;;;;;22.48;16.65;;;8.00;99.90;;;;;;4992287;28;20097;-74
2023/12/19 07:06:21;;;;;;;20.20;14.75;;;8.00;99.90;;;;;;4997060;28;20049;-74
2023/12/19 07:08:47;;;;;;;21.75;16.10;;;8.00;99.90;;;;;;4977152;28;20035;-78
2023/12/19 07:11:14;;;;;;;18.90;15.07;;;8.00;99.90;;;;;;4980676;28;20038;-79
2023/12/19 07:13:40;;;;;;;18.67;14.70;;;8.00;99.90;;;;;;4977516;28;20035;-79
2023/12/19 07:16:06;;;;;;;22.10;15.35;;;8.00;99.90;;;;;;4997237;28;20043;-78
2023/12/19 07:18:33;;;;;;;20.90;14.95;;;8.00;99.90;;;;;;4961216;28;20499;-79
2023/12/19 07:20:58;;;;;;;24.92;16.52;;;8.00;99.90;;;;;;4962120;28;20046;-78
2023/12/19 07:23:28;;;;;;;17.67;13.80;;;8.10;99.90;;;;;;4979617;28;20104;-76
2023/12/19 07:25:56;;;;;;;16.33;13.55;;;8.00;99.90;;;;;;4983711;28;20123;-78
2023/12/19 07:28:22;;;;;;;21.58;15.63;;;8.10;99.90;;;;;;4982254;28;20050;-78
2023/12/19 07:30:47;;;;;;;20.75;15.02;;;8.00;99.90;;;;;;4985393;28;20057;-78
2023/12/19 07:33:13;;;;;;;22.70;15.50;;;8.10;99.90;;;;;;4982079;28;20077;-77
2023/12/19 07:35:40;;;;;;;20.13;15.20;;;8.10;99.90;;;;;;4984336;28;20118;-77
2023/12/19 07:38:06;;;;;;;21.50;15.95;;;8.10;99.90;;;;;;4982077;28;20054;-77
2023/12/19 07:40:32;;;;;;;19.83;15.48;;;8.10;99.90;;;;;;4965437;28;20124;-78
2023/12/19 07:42:58;;;;;;;24.20;16.63;;;8.10;99.90;;;;;;4997012;28;20473;-77
2023/12/19 07:45:23;;;;;;;25.10;18.08;;;8.10;99.90;;;;;;4962131;28;20050;-79
2023/12/19 07:47:51;;;;;;;29.00;18.63;;;8.10;99.90;;;;;;4967611;28;20045;-79
2023/12/19 07:50:17;;;;;;;19.92;16.27;;;8.20;99.90;;;;;;4966138;28;20034;-79
2023/12/19 07:52:44;;;;;;;20.35;16.83;;;8.10;99.90;;;;;;4979810;28;20038;-78
2023/12/19 07:55:10;;;;;;;26.48;17.50;;;8.10;99.90;;;;;;4982957;28;20509;-78
2023/12/19 07:57:39;;;;;;;26.60;17.35;;;8.10;99.90;;;;;;4970999;28;20050;-77
2023/12/19 08:00:11;;;;;;;26.07;17.90;;;8.10;99.90;;;;;;4968809;28;20070;-78
2023/12/19 08:02:36;;;;;;;32.60;19.52;;;8.10;99.90;;;;;;4966800;28;20051;-78
2023/12/19 08:05:04;;;;;;;24.80;16.98;;;8.10;99.90;;;;;;4999429;28;20072;-78
2023/12/19 08:07:30;;;;;;;29.63;17.55;;;8.20;99.90;;;;;;4966982;28;20043;-78
2023/12/19 08:09:59;;;;;;;26.13;17.73;;;8.20;99.90;;;;;;4967003;28;20505;-79
2023/12/19 08:12:24;;;;;;;24.30;16.85;;;8.20;99.90;;;;;;4981167;28;20120;-78
2023/12/19 08:14:53;;;;;;;25.52;17.33;;;8.20;99.90;;;;;;4964427;28;20057;-78
2023/12/19 08:17:20;;;;;;;32.45;18.48;;;8.20;99.90;;;;;;5014440;28;20077;-78
2023/12/19 08:19:46;;;;;;;23.17;16.02;;;8.30;99.90;;;;;;4963290;28;20513;-78
2023/12/19 08:22:12;;;;;;;25.88;17.33;;;8.30;99.90;;;;;;4982298;28;20038;-78
2023/12/19 08:24:38;;;;;;;30.52;19.02;;;8.30;99.90;;;;;;4982892;28;20046;-78
2023/12/19 08:27:04;;;;;;;26.10;18.00;;;8.30;99.90;;;;;;4967462;28;20039;-78
2023/12/19 08:29:29;;;;;;;27.08;18.17;;;8.30;99.90;;;;;;4981824;28;20050;-78
2023/12/19 08:31:55;;;;;;;28.27;18.52;;;8.30;99.90;;;;;;4979913;28;20081;-78
2023/12/19 08:34:21;;;;;;;29.73;18.40;;;8.40;99.90;;;;;;4967134;28;20414;-78
2023/12/19 08:36:47;;;;;;;27.40;18.15;;;8.40;99.90;;;;;;4966683;28;20057;-78
2023/12/19 08:39:13;;;;;;;34.58;20.35;;;8.40;99.90;;;;;;4963434;28;20065;-78
2023/12/19 08:41:43;;;;;;;33.92;19.98;;;8.40;99.90;;;;;;4982796;28;20073;-78
2023/12/19 08:44:09;;;;;;;34.28;20.85;;;8.40;99.90;;;;;;4964687;28;20042;-79
2023/12/19 08:46:35;;;;;;;30.75;18.73;;;8.40;99.90;;;;;;4965311;28;20053;-78
2023/12/19 08:49:02;;;;;;;32.55;20.08;;;8.40;99.90;;;;;;4979679;28;20042;-78
2023/12/19 08:51:28;;;;;;;39.53;21.13;;;8.50;99.90;;;;;;4965870;28;20054;-78
2023/12/19 08:53:54;;;;;;;38.65;20.88;;;8.50;99.90;;;;;;4980929;28;20541;-78
2023/12/19 08:56:20;;;;;;;40.65;20.83;;;8.50;99.90;;;;;;4968563;28;20046;-78
2023/12/19 08:58:48;;;;;;;44.50;21.88;;;8.50;99.90;;;;;;4961767;28;20053;-78
2023/12/19 09:01:14;;;;;;;30.20;19.35;;;8.50;99.90;;;;;;4997402;28;20108;-78
2023/12/19 09:03:40;;;;;;;44.70;22.33;;;8.50;99.90;;;;;;4981996;28;20034;-78
2023/12/19 09:06:06;;;;;;;43.30;22.80;;;8.50;99.90;;;;;;4980335;28;20034;-78
2023/12/19 09:08:32;;;;;;;42.33;22.65;;;8.50;99.90;;;;;;4981443;28;20490;-78
2023/12/19 09:10:58;;;;;;;36.75;21.05;;;8.60;99.90;;;;;;4966916;28;20053;-78
2023/12/19 09:13:24;;;;;;;47.10;22.77;;;8.50;99.90;;;;;;4997203;28;20053;-78
2023/12/19 09:15:50;;;;;;;39.90;20.73;;;8.60;99.90;;;;;;4994044;28;20047;-78
2023/12/19 09:18:17;;;;;;;32.17;19.65;;;8.60;99.90;;;;;;4979204;28;20038;-78
2023/12/19 09:20:46;;;;;;;33.10;20.05;;;8.60;99.90;;;;;;4966699;28;20566;-78
2023/12/19 09:23:12;;;;;;;41.33;21.55;;;8.60;99.90;;;;;;5013140;28;20559;-78
2023/12/19 09:25:37;;;;;;;39.13;22.67;;;8.60;99.90;;;;;;4981010;28;20132;-78
2023/12/19 09:28:03;;;;;;;44.03;22.35;;;8.60;99.90;;;;;;4961842;28;20141;-78
2023/12/19 09:30:29;;;;;;;28.15;19.35;;;8.60;99.90;;;;;;4981472;28;20050;-79
2023/12/19 09:32:55;;;;;;;41.75;20.92;;;8.70;99.90;;;;;;4996104;28;20411;-78
2023/12/19 09:35:21;;;;;;;44.10;22.15;;;8.70;99.90;;;;;;4965232;28;20049;-78
2023/12/19 09:37:49;;;;;;;31.25;20.33;;;8.70;99.90;;;;;;4979105;28;20047;-79
2023/12/19 09:40:17;;;;;;;45.40;22.15;;;8.70;99.90;;;;;;4980835;28;20049;-78
2023/12/19 09:42:42;;;;;;;40.15;21.58;;;8.70;99.90;;;;;;4979847;28;20437;-79
2023/12/19 09:45:08;;;;;;;36.65;20.75;;;8.70;99.90;;;;;;4980674;28;20038;-79
2023/12/19 09:47:40;;;;;;;34.20;19.85;;;8.70;99.90;;;;;;4977448;28;20073;-79
2023/12/19 09:50:13;;;;;;;29.05;18.55;;;8.70;99.90;;;;;;4979710;28;20289;-79
2023/12/19 09:52:40;;;;;;;39.38;22.15;;;8.70;99.90;;;;;;5013512;28;20057;-79
2023/12/19 09:55:06;;;;;;;29.60;19.42;;;8.80;99.90;;;;;;4964958;28;20050;-79
2023/12/19 09:57:35;;;;;;;33.53;20.38;;;8.80;99.90;;;;;;4977431;28;20398;-79
2023/12/19 10:00:08;;;;;;;42.05;21.42;;;8.80;99.90;;;;;;4965718;28;20130;-79
2023/12/19 10:02:34;;;;;;;44.08;22.13;;;8.80;99.90;;;;;;4961421;28;20620;-79
2023/12/19 10:05:00;;;;;;;33.80;20.63;;;8.80;99.90;;;;;;4996928;28;20402;-79
2023/12/19 10:07:29;;;;;;;38.67;22.13;;;8.80;99.90;;;;;;4978511;28;20054;-79
2023/12/19 10:09:56;;;;;;;36.60;21.35;;;8.80;99.90;;;;;;4982243;28;20402;-80
2023/12/19 10:12:27;;;;;;;40.10;20.77;;;8.80;99.90;;;;;;4962472;28;20053;-79
2023/12/19 10:15:13;;;;;;;33.55;20.45;;;8.80;99.90;;;;;;4980705;28;20116;-79
2023/12/19 10:17:39;;;;;;;42.60;21.67;;;8.80;99.90;;;;;;4963905;28;20066;-79
2023/12/19 10:20:10;;;;;;;35.05;20.95;;;8.80;99.90;;;;;;4994845;28;20103;-78
2023/12/19 10:22:39;;;;;;;43.63;21.15;;;8.80;99.90;;;;;;4973355;28;20042;-78
2023/12/19 10:25:07;;;;;;;39.70;20.73;;;8.90;99.90;;;;;;4965304;28;20072;-79
2023/12/19 10:27:33;;;;;;;29.65;19.25;;;8.80;99.90;;;;;;4964607;28;20046;-79
2023/12/19 10:30:28;;;;;;;41.45;21.02;;;8.80;99.90;;;;;;5012910;28;20514;-79
2023/12/19 10:32:56;;;;;;;28.70;19.45;;;8.80;99.90;;;;;;4997089;28;20054;-79
2023/12/19 10:35:21;;;;;;;34.17;20.08;;;8.80;99.90;;;;;;4964063;28;20585;-78
2023/12/19 10:37:47;;;;;;;33.10;20.13;;;8.90;99.90;;;;;;5010203;28;20161;-79
2023/12/19 10:40:19;;;;;;;32.92;19.92;;;8.80;99.90;;;;;;4980360;28;20030;-79
2023/12/19 10:42:58;;;;;;;33.72;18.88;;;8.90;99.90;;;;;;4980047;28;20070;-78
2023/12/19 10:45:27;;;;;;;34.80;20.20;;;8.90;99.90;;;;;;4996061;28;20514;-78
2023/12/19 10:47:53;;;;;;;30.10;18.98;;;8.90;99.90;;;;;;4979115;28;20059;-78
2023/12/19 10:50:19;;;;;;;28.92;18.05;;;8.90;99.90;;;;;;4980061;28;20049;-78
2023/12/19 10:52:50;;;;;;;38.00;20.58;;;9.00;99.90;;;;;;5010544;28;20050;-79
2023/12/19 10:55:18;;;;;;;;;;;8.80;99.90;;;;;;4979739;28;20746;-79
2023/12/19 10:57:52;;;;;;;31.60;19.15;;;8.90;99.90;;;;;;4962914;28;20440;-79
2023/12/19 11:00:22;;;;;;;29.38;18.60;;;8.90;99.90;;;;;;4964920;28;20061;-79
2023/12/19 11:03:23;;;;;;;29.55;17.90;;;8.90;99.90;;;;;;4984069;28;20038;-79
2023/12/19 11:05:51;;;;;;;25.58;16.77;;;8.90;99.90;;;;;;4965247;28;20114;-79
2023/12/19 11:08:18;;;;;;;26.08;18.00;;;8.90;99.90;;;;;;4967409;28;20119;-79
2023/12/19 11:11:27;;;;;;;28.55;18.10;;;8.90;99.90;;;;;;5012426;28;20057;-78
2023/12/19 11:13:54;;;;;;;21.58;16.30;;;8.90;99.90;;;;;;4925531;28;20086;-79
2023/12/19 11:16:27;;;;;;;31.20;19.48;;;8.90;99.90;;;;;;4970673;28;20054;-79
2023/12/19 11:19:03;;;;;;;34.53;19.40;;;8.90;99.90;;;;;;5015507;28;20050;-79
2023/12/19 11:21:41;;;;;;;28.42;19.10;;;8.90;99.90;;;;;;4979292;28;20509;-79
2023/12/19 11:24:21;;;;;;;27.58;19.45;;;8.90;99.90;;;;;;4967299;28;20045;-78
2023/12/19 11:27:05;;;;;;;25.92;18.77;;;8.90;99.90;;;;;;5000579;28;20046;-79
2023/12/19 11:29:50;;;;;;;28.48;19.15;;;8.90;99.90;;;;;;4965438;28;20415;-79
2023/12/19 11:32:28;;;;;;;28.67;19.67;;;8.90;99.90;;;;;;4968453;28;20099;-79
2023/12/19 11:35:05;;;;;;;26.48;19.60;;;8.90;99.90;;;;;;4981909;28;20054;-79
2023/12/19 11:37:31;;;;;;;27.40;20.52;;;8.90;99.90;;;;;;4981274;28;20050;-79
2023/12/19 11:39:57;;;;;;;24.40;19.23;;;8.90;99.90;;;;;;4968117;28;20673;-78
2023/12/19 11:42:38;;;;;;;27.50;21.27;;;8.90;99.90;;;;;;4967460;28;20042;-79
2023/12/19 11:45:17;;;;;;;34.25;21.88;;;8.90;99.90;;;;;;4999758;28;20046;-79
2023/12/19 11:47:49;;;;;;;28.25;20.85;;;8.90;99.90;;;;;;4965925;28;20080;-78
2023/12/19 11:50:40;;;;;;;37.63;24.15;;;8.90;99.90;;;;;;4981871;28;20038;-78
2023/12/19 11:53:06;;;;;;;32.88;23.27;;;8.90;99.90;;;;;;4982147;28;20057;-78
2023/12/19 11:55:32;;;;;;;37.50;23.92;;;9.10;99.90;;;;;;4967514;28;20502;-78
2023/12/19 11:58:12;;;;;;;35.03;24.10;;;8.90;99.90;;;;;;4981486;28;20061;-79
2023/12/19 12:00:38;;;;;;;36.28;25.08;;;8.90;99.90;;;;;;4963111;28;20129;-79
2023/12/19 12:03:10;;;;;;;35.53;25.15;;;8.90;99.90;;;;;;4996982;28;20780;-79
2023/12/19 12:05:37;;;;;;;37.70;24.80;;;9.00;99.90;;;;;;4965904;28;20658;-78
2023/12/19 12:08:03;;;;;;;40.83;25.83;;;9.00;99.90;;;;;;4978943;28;20145;-79
2023/12/19 12:10:29;;;;;;;42.25;25.38;;;9.00;99.90;;;;;;4966195;28;20061;-78
2023/12/19 12:12:58;;;;;;;29.45;22.52;;;8.90;99.90;;;;;;4981694;28;20046;-79
2023/12/19 12:15:25;;;;;;;34.17;23.33;;;9.00;99.90;;;;;;4964134;28;20444;-78
2023/12/19 12:18:02;;;;;;;40.20;25.13;;;9.00;99.90;;;;;;4979869;28;20680;-79
2023/12/19 12:20:32;;;;;;;47.10;26.13;;;9.00;99.90;;;;;;4997331;28;20976;-79
2023/12/19 12:22:58;;;;;;;35.83;23.10;;;9.00;99.90;;;;;;4963053;28;20826;-79
2023/12/19 12:25:24;;;;;;;39.90;24.33;;;9.00;99.90;;;;;;4966178;28;20038;-78
2023/12/19 12:27:56;;;;;;;37.13;22.35;;;9.00;99.90;;;;;;4961497;28;20046;-78
2023/12/19 12:30:31;;;;;;;39.40;22.52;;;9.00;99.90;;;;;;4965159;28;20046;-78
2023/12/19 12:32:57;;;;;;;42.78;21.88;;;9.00;99.90;;;;;;4963540;28;20051;-78
2023/12/19 12:35:32;;;;;;;39.83;22.08;;;9.00;99.90;;;;;;4982978;28;20108;-78
2023/12/19 12:38:00;;;;;;;24.77;17.23;;;9.00;99.90;;;;;;4964889;28;20131;-78
2023/12/19 12:40:26;;;;;;;32.60;20.02;;;9.10;99.90;;;;;;4966045;28;20061;-77